createdAt,value
2017-04-03T00:00:10.236Z,0
2017-04-03T00:00:50.736Z,0
2017-04-03T00:01:31.270Z,0
2017-04-03T00:02:11.807Z,0
2017-04-03T00:02:52.345Z,0
2017-04-03T00:03:32.855Z,0
2017-04-03T00:04:13.385Z,0
2017-04-03T00:04:53.924Z,0
2017-04-03T00:05:34.444Z,0
2017-04-03T00:06:14.970Z,0
2017-04-03T00:06:55.479Z,0
2017-04-03T00:07:36.010Z,0
2017-04-03T00:08:16.544Z,0
2017-04-03T00:08:57.077Z,0
2017-04-03T00:09:37.604Z,0
2017-04-03T00:10:18.137Z,0
2017-04-03T00:10:58.672Z,0
2017-04-03T00:11:39.206Z,0
2017-04-03T00:12:19.743Z,0
2017-04-03T00:13:00.272Z,0
2017-04-03T00:13:40.799Z,0
2017-04-03T00:14:21.327Z,0
2017-04-03T00:15:01.863Z,0
2017-04-03T00:15:42.400Z,0
2017-04-03T00:16:22.923Z,0
2017-04-03T00:17:03.452Z,0
2017-04-03T00:17:43.988Z,0
2017-04-03T00:18:24.516Z,0
2017-04-03T00:19:05.031Z,0
2017-04-03T00:19:45.545Z,0
2017-04-03T00:20:26.082Z,0
2017-04-03T00:21:06.618Z,0
2017-04-03T00:21:47.152Z,0
2017-04-03T00:22:27.680Z,0
2017-04-03T00:23:08.194Z,0
2017-04-03T00:23:48.724Z,0
2017-04-03T00:24:29.251Z,0
2017-04-03T00:25:09.785Z,0
2017-04-03T00:25:50.309Z,0
2017-04-03T00:26:30.834Z,0
2017-04-03T00:27:11.378Z,0
2017-04-03T00:27:51.904Z,0
2017-04-03T00:28:32.434Z,0
2017-04-03T00:29:12.956Z,0
2017-04-03T00:29:53.488Z,0
2017-04-03T00:30:34.027Z,0
2017-04-03T00:31:14.556Z,0
2017-04-03T00:31:55.086Z,0
2017-04-03T00:32:35.617Z,0
2017-04-03T00:33:16.147Z,0
2017-04-03T00:33:56.682Z,0
2017-04-03T00:34:37.216Z,0
2017-04-03T00:35:17.736Z,0
2017-04-03T00:35:58.263Z,0
2017-04-03T00:36:38.801Z,0
2017-04-03T00:37:19.387Z,0
2017-04-03T00:37:59.880Z,0
2017-04-03T00:38:40.408Z,0
2017-04-03T00:39:20.938Z,0
2017-04-03T00:40:01.475Z,0
2017-04-03T00:40:42.009Z,0
2017-04-03T00:41:22.525Z,0
2017-04-03T00:42:03.062Z,0
2017-04-03T00:42:43.597Z,0
2017-04-03T00:43:24.129Z,0
2017-04-03T00:44:04.656Z,0
2017-04-03T00:44:45.195Z,0
2017-04-03T00:45:25.738Z,0
2017-04-03T00:46:06.268Z,0
2017-04-03T00:46:46.815Z,0
2017-04-03T00:47:27.348Z,0
2017-04-03T00:48:07.875Z,0
2017-04-03T00:48:48.398Z,0
2017-04-03T00:49:28.921Z,0
2017-04-03T00:50:09.464Z,0
2017-04-03T00:50:49.984Z,0
2017-04-03T00:51:30.515Z,0
2017-04-03T00:52:11.042Z,0
2017-04-03T00:52:51.566Z,0
2017-04-03T00:53:32.084Z,0
2017-04-03T00:54:12.606Z,0
2017-04-03T00:54:53.138Z,0
2017-04-03T00:55:33.673Z,0
2017-04-03T00:56:14.216Z,0
2017-04-03T00:56:54.747Z,0
2017-04-03T00:57:35.269Z,0
2017-04-03T00:58:15.809Z,0
2017-04-03T00:58:56.340Z,0
2017-04-03T00:59:36.879Z,0
2017-04-03T01:00:17.417Z,0
2017-04-03T01:00:57.951Z,0
2017-04-03T01:01:38.477Z,0
2017-04-03T01:02:19.011Z,0
2017-04-03T01:02:59.547Z,0
2017-04-03T01:03:40.058Z,0
2017-04-03T01:04:20.600Z,0
2017-04-03T01:05:01.146Z,0
2017-04-03T01:05:41.658Z,0
2017-04-03T01:06:22.172Z,0
2017-04-03T01:07:02.696Z,0
2017-04-03T01:07:43.232Z,0
2017-04-03T01:08:23.767Z,0
2017-04-03T01:09:04.297Z,0
2017-04-03T01:09:44.821Z,0
2017-04-03T01:10:25.342Z,0
2017-04-03T01:11:05.849Z,0
2017-04-03T01:11:46.375Z,0
2017-04-03T01:12:26.908Z,0
2017-04-03T01:13:07.455Z,0
2017-04-03T01:13:47.983Z,0
2017-04-03T01:14:28.518Z,0
2017-04-03T01:15:09.063Z,0
2017-04-03T01:15:49.609Z,0
2017-04-03T01:16:30.149Z,0
2017-04-03T01:17:10.679Z,0
2017-04-03T01:17:51.206Z,0
2017-04-03T01:18:31.738Z,0
2017-04-03T01:19:12.276Z,0
2017-04-03T01:19:52.811Z,0
2017-04-03T01:20:33.351Z,0
2017-04-03T01:21:13.888Z,0
2017-04-03T01:21:54.426Z,0
2017-04-03T01:22:34.948Z,0
2017-04-03T01:23:15.479Z,0
2017-04-03T01:23:56.021Z,0
2017-04-03T01:24:36.537Z,0
2017-04-03T01:25:17.065Z,0
2017-04-03T01:25:57.605Z,0
2017-04-03T01:26:38.130Z,0
2017-04-03T01:27:18.646Z,0
2017-04-03T01:27:59.183Z,0
2017-04-03T01:28:39.717Z,0
2017-04-03T01:29:20.251Z,0
2017-04-03T01:30:00.768Z,0
2017-04-03T01:30:41.339Z,0
2017-04-03T01:31:21.869Z,0
2017-04-03T01:32:02.395Z,0
2017-04-03T01:32:42.924Z,0
2017-04-03T01:33:23.453Z,0
2017-04-03T01:34:03.987Z,0
2017-04-03T01:34:44.524Z,0
2017-04-03T01:35:25.064Z,0
2017-04-03T01:36:05.603Z,0
2017-04-03T01:36:46.163Z,0
2017-04-03T01:37:26.667Z,0
2017-04-03T01:38:07.206Z,0
2017-04-03T01:38:47.741Z,0
2017-04-03T01:39:28.291Z,0
2017-04-03T01:40:08.819Z,0
2017-04-03T01:40:49.354Z,0
2017-04-03T01:41:29.898Z,0
2017-04-03T01:42:10.424Z,0
2017-04-03T01:42:50.960Z,0
2017-04-03T01:43:31.532Z,0
2017-04-03T01:44:12.033Z,0
2017-04-03T01:44:52.567Z,0
2017-04-03T01:45:33.104Z,0
2017-04-03T01:46:13.631Z,0
2017-04-03T01:46:54.161Z,0
2017-04-03T01:47:34.697Z,0
2017-04-03T01:48:15.235Z,0
2017-04-03T01:48:55.766Z,0
2017-04-03T01:49:36.296Z,0
2017-04-03T01:50:16.825Z,0
2017-04-03T01:50:57.355Z,0
2017-04-03T01:51:37.891Z,0
2017-04-03T01:52:18.410Z,0
2017-04-03T01:52:58.946Z,0
2017-04-03T01:53:39.495Z,0
2017-04-03T01:54:20.011Z,0
2017-04-03T01:55:00.544Z,0
2017-04-03T01:55:41.079Z,0
2017-04-03T01:56:21.611Z,0
2017-04-03T01:57:02.149Z,0
2017-04-03T01:57:42.676Z,0
2017-04-03T01:58:23.215Z,0
2017-04-03T01:59:03.723Z,0
2017-04-03T01:59:44.254Z,0
2017-04-03T02:00:24.777Z,0
2017-04-03T02:01:05.309Z,0
2017-04-03T02:01:45.842Z,0
2017-04-03T02:02:26.375Z,0
2017-04-03T02:03:06.902Z,0
2017-04-03T02:03:47.426Z,0
2017-04-03T02:04:27.960Z,0
2017-04-03T02:05:08.471Z,0
2017-04-03T02:05:48.993Z,0
2017-04-03T02:06:29.523Z,0
2017-04-03T02:07:10.049Z,0
2017-04-03T02:07:50.587Z,0
2017-04-03T02:08:31.120Z,0
2017-04-03T02:09:11.663Z,0
2017-04-03T02:09:52.192Z,0
2017-04-03T02:10:32.731Z,0
2017-04-03T02:11:13.257Z,0
2017-04-03T02:11:53.803Z,0
2017-04-03T02:12:34.323Z,0
2017-04-03T02:13:14.855Z,0
2017-04-03T02:13:55.386Z,0
2017-04-03T02:14:35.906Z,0
2017-04-03T02:15:16.432Z,0
2017-04-03T02:15:56.949Z,0
2017-04-03T02:16:37.467Z,0
2017-04-03T02:17:18.005Z,0
2017-04-03T02:17:58.542Z,0
2017-04-03T02:18:39.083Z,0
2017-04-03T02:19:19.621Z,0
2017-04-03T02:20:00.144Z,0
2017-04-03T02:20:40.664Z,0
2017-04-03T02:21:21.187Z,0
2017-04-03T02:22:01.709Z,0
2017-04-03T02:22:42.240Z,0
2017-04-03T02:23:22.764Z,0
2017-04-03T02:24:03.290Z,0
2017-04-03T02:24:43.826Z,0
2017-04-03T02:25:24.340Z,0
2017-04-03T02:26:04.870Z,0
2017-04-03T02:26:45.393Z,0
2017-04-03T02:27:25.905Z,0
2017-04-03T02:28:06.427Z,0
2017-04-03T02:28:46.954Z,0
2017-04-03T02:29:27.490Z,0
2017-04-03T02:30:08.011Z,0
2017-04-03T02:30:48.539Z,0
2017-04-03T02:31:29.071Z,0
2017-04-03T02:32:09.602Z,0
2017-04-03T02:32:50.129Z,0
2017-04-03T02:33:30.666Z,0
2017-04-03T02:34:11.189Z,0
2017-04-03T02:34:51.725Z,0
2017-04-03T02:35:32.240Z,0
2017-04-03T02:36:12.776Z,0
2017-04-03T02:36:55.837Z,0
2017-04-03T02:37:36.375Z,0
2017-04-03T02:38:16.881Z,0
2017-04-03T02:38:57.408Z,0
2017-04-03T02:39:37.950Z,0
2017-04-03T02:40:18.473Z,0
2017-04-03T02:40:59.009Z,0
2017-04-03T02:41:39.543Z,0
2017-04-03T02:42:20.070Z,0
2017-04-03T02:43:00.609Z,0
2017-04-03T02:43:41.142Z,0
2017-04-03T02:44:21.676Z,0
2017-04-03T02:45:02.208Z,0
2017-04-03T02:45:42.745Z,0
2017-04-03T02:46:23.276Z,0
2017-04-03T02:47:03.826Z,0
2017-04-03T02:47:44.362Z,0
2017-04-03T02:48:24.891Z,0
2017-04-03T02:49:05.426Z,0
2017-04-03T02:49:45.966Z,0
2017-04-03T02:50:26.507Z,0
2017-04-03T02:51:07.043Z,0
2017-04-03T02:51:47.573Z,0
2017-04-03T02:52:28.109Z,0
2017-04-03T02:53:08.642Z,0
2017-04-03T02:53:49.177Z,0
2017-04-03T02:54:29.719Z,0
2017-04-03T02:55:10.237Z,0
2017-04-03T02:55:50.779Z,0
2017-04-03T02:56:31.307Z,0
2017-04-03T02:57:11.844Z,0
2017-04-03T02:57:52.416Z,0
2017-04-03T02:58:33.073Z,0
2017-04-03T02:59:13.556Z,0
2017-04-03T02:59:54.176Z,0
2017-04-03T03:00:34.712Z,0
2017-04-03T03:01:15.225Z,0
2017-04-03T03:01:55.761Z,0
2017-04-03T03:02:36.290Z,0
2017-04-03T03:03:16.823Z,0
2017-04-03T03:03:57.359Z,0
2017-04-03T03:04:37.899Z,0
2017-04-03T03:05:18.434Z,0
2017-04-03T03:05:58.970Z,0
2017-04-03T03:06:39.506Z,0
2017-04-03T03:07:20.013Z,0
2017-04-03T03:08:00.549Z,0
2017-04-03T03:08:41.092Z,0
2017-04-03T03:09:21.627Z,0
2017-04-03T03:10:02.164Z,0
2017-04-03T03:10:42.697Z,0
2017-04-03T03:11:23.214Z,0
2017-04-03T03:12:03.751Z,0
2017-04-03T03:12:44.278Z,0
2017-04-03T03:13:24.807Z,0
2017-04-03T03:14:05.323Z,0
2017-04-03T03:14:45.856Z,0
2017-04-03T03:15:26.393Z,0
2017-04-03T03:16:06.929Z,0
2017-04-03T03:16:47.464Z,0
2017-04-03T03:17:27.996Z,0
2017-04-03T03:18:08.509Z,0
2017-04-03T03:18:49.048Z,0
2017-04-03T03:19:29.591Z,0
2017-04-03T03:20:10.119Z,0
2017-04-03T03:20:50.676Z,0
2017-04-03T03:21:31.210Z,0
2017-04-03T03:22:11.727Z,0
2017-04-03T03:22:52.263Z,0
2017-04-03T03:23:32.779Z,0
2017-04-03T03:24:13.311Z,0
2017-04-03T03:24:53.834Z,0
2017-04-03T03:25:34.357Z,0
2017-04-03T03:26:14.890Z,0
2017-04-03T03:26:55.406Z,0
2017-04-03T03:27:35.935Z,0
2017-04-03T03:28:16.467Z,0
2017-04-03T03:28:57.010Z,0
2017-04-03T03:29:37.537Z,0
2017-04-03T03:30:18.074Z,0
2017-04-03T03:30:58.606Z,0
2017-04-03T03:31:39.161Z,0
2017-04-03T03:32:19.655Z,0
2017-04-03T03:33:00.186Z,0
2017-04-03T03:33:40.765Z,0
2017-04-03T03:34:21.315Z,0
2017-04-03T03:35:01.856Z,0
2017-04-03T03:35:42.391Z,0
2017-04-03T03:36:22.930Z,0
2017-04-03T03:37:03.452Z,0
2017-04-03T03:37:43.969Z,0
2017-04-03T03:38:24.508Z,0
2017-04-03T03:39:05.037Z,0
2017-04-03T03:39:45.577Z,0
2017-04-03T03:40:26.102Z,0
2017-04-03T03:41:06.644Z,0
2017-04-03T03:41:47.170Z,0
2017-04-03T03:42:27.703Z,0
2017-04-03T03:43:08.235Z,0
2017-04-03T03:43:48.765Z,0
2017-04-03T03:44:29.291Z,0
2017-04-03T03:45:09.823Z,0
2017-04-03T03:45:50.364Z,0
2017-04-03T03:46:30.907Z,0
2017-04-03T03:47:11.425Z,0
2017-04-03T03:47:51.934Z,0
2017-04-03T03:48:32.472Z,0
2017-04-03T03:49:12.992Z,0
2017-04-03T03:49:53.510Z,0
2017-04-03T03:50:34.038Z,0
2017-04-03T03:51:14.564Z,0
2017-04-03T03:51:55.093Z,0
2017-04-03T03:52:35.621Z,0
2017-04-03T03:53:16.158Z,0
2017-04-03T03:53:56.788Z,0
2017-04-03T03:54:37.265Z,0
2017-04-03T03:55:17.789Z,0
2017-04-03T03:55:58.301Z,0
2017-04-03T03:56:38.843Z,0
2017-04-03T03:57:19.352Z,0
2017-04-03T03:57:59.884Z,0
2017-04-03T03:58:40.420Z,0
2017-04-03T03:59:20.949Z,0
2017-04-03T04:00:01.476Z,0
2017-04-03T04:00:41.994Z,0
2017-04-03T04:01:22.523Z,0
2017-04-03T04:02:03.036Z,0
2017-04-03T04:02:43.528Z,0
2017-04-03T04:03:24.032Z,0
2017-04-03T04:04:04.659Z,0
2017-04-03T04:04:45.203Z,0
2017-04-03T04:05:25.738Z,0
2017-04-03T04:06:06.276Z,0
2017-04-03T04:06:46.805Z,0
2017-04-03T04:07:27.330Z,0
2017-04-03T04:08:07.861Z,0
2017-04-03T04:08:48.394Z,0
2017-04-03T04:09:28.935Z,0
2017-04-03T04:10:09.472Z,0
2017-04-03T04:10:50.009Z,0
2017-04-03T04:11:30.532Z,0
2017-04-03T04:12:11.063Z,0
2017-04-03T04:12:51.581Z,0
2017-04-03T04:13:32.115Z,0
2017-04-03T04:14:12.642Z,0
2017-04-03T04:14:53.148Z,0
2017-04-03T04:15:33.689Z,0
2017-04-03T04:16:14.207Z,0
2017-04-03T04:16:54.723Z,0
2017-04-03T04:17:35.255Z,0
2017-04-03T04:18:15.789Z,0
2017-04-03T04:18:56.341Z,0
2017-04-03T04:19:36.879Z,0
2017-04-03T04:20:17.403Z,0
2017-04-03T04:20:57.918Z,0
2017-04-03T04:21:38.442Z,0
2017-04-03T04:22:18.983Z,0
2017-04-03T04:22:59.469Z,0
2017-04-03T04:23:39.969Z,0
2017-04-03T04:24:20.493Z,0
2017-04-03T04:25:01.015Z,0
2017-04-03T04:25:41.532Z,0
2017-04-03T04:26:22.048Z,0
2017-04-03T04:27:02.593Z,0
2017-04-03T04:27:43.120Z,0
2017-04-03T04:28:23.643Z,0
2017-04-03T04:29:04.174Z,0
2017-04-03T04:29:44.707Z,0
2017-04-03T04:30:25.232Z,0
2017-04-03T04:31:05.752Z,0
2017-04-03T04:31:46.283Z,0
2017-04-03T04:32:26.821Z,0
2017-04-03T04:33:07.373Z,0
2017-04-03T04:33:47.913Z,0
2017-04-03T04:34:28.443Z,0
2017-04-03T04:35:08.979Z,0
2017-04-03T04:35:49.507Z,0
2017-04-03T04:36:30.051Z,0
2017-04-03T04:37:10.569Z,4
2017-04-03T04:37:51.094Z,4
2017-04-03T04:38:31.608Z,4
2017-04-03T04:39:12.154Z,0
2017-04-03T04:39:52.674Z,4
2017-04-03T04:40:33.222Z,4
2017-04-03T04:41:13.763Z,4
2017-04-03T04:41:54.259Z,4
2017-04-03T04:42:34.779Z,4
2017-04-03T04:43:15.317Z,4
2017-04-03T04:43:55.850Z,8
2017-04-03T04:44:36.378Z,4
2017-04-03T04:45:16.884Z,8
2017-04-03T04:45:57.410Z,8
2017-04-03T04:46:37.939Z,12
2017-04-03T04:47:18.463Z,12
2017-04-03T04:47:58.995Z,12
2017-04-03T04:48:39.531Z,12
2017-04-03T04:49:20.061Z,16
2017-04-03T04:50:00.578Z,16
2017-04-03T04:50:41.098Z,20
2017-04-03T04:51:21.620Z,24
2017-04-03T04:52:02.150Z,24
2017-04-03T04:52:42.726Z,24
2017-04-03T04:53:23.211Z,32
2017-04-03T04:54:03.743Z,32
2017-04-03T04:54:44.273Z,36
2017-04-03T04:55:24.783Z,40
2017-04-03T04:56:05.309Z,40
2017-04-03T04:56:45.846Z,44
2017-04-03T04:57:26.357Z,48
2017-04-03T04:58:06.875Z,56
2017-04-03T04:58:47.409Z,60
2017-04-03T04:59:27.943Z,64
2017-04-03T05:00:08.477Z,68
2017-04-03T05:00:49.004Z,76
2017-04-03T05:01:29.525Z,80
2017-04-03T05:02:10.058Z,84
2017-04-03T05:02:50.594Z,88
2017-04-03T05:03:31.110Z,96
2017-04-03T05:04:11.620Z,100
2017-04-03T05:04:52.143Z,112
2017-04-03T05:05:32.676Z,116
2017-04-03T05:06:13.176Z,124
2017-04-03T05:06:53.703Z,132
2017-04-03T05:07:34.237Z,136
2017-04-03T05:08:14.766Z,144
2017-04-03T05:08:55.278Z,152
2017-04-03T05:09:35.814Z,164
2017-04-03T05:10:16.335Z,172
2017-04-03T05:10:56.875Z,180
2017-04-03T05:11:37.400Z,188
2017-04-03T05:12:17.917Z,196
2017-04-03T05:12:58.439Z,208
2017-04-03T05:13:38.958Z,216
2017-04-03T05:14:19.497Z,224
2017-04-03T05:15:00.050Z,236
2017-04-03T05:15:40.577Z,248
2017-04-03T05:16:21.116Z,260
2017-04-03T05:17:01.650Z,268
2017-04-03T05:17:42.171Z,284
2017-04-03T05:18:22.703Z,292
2017-04-03T05:19:03.234Z,304
2017-04-03T05:19:43.767Z,316
2017-04-03T05:20:24.303Z,328
2017-04-03T05:21:04.826Z,340
2017-04-03T05:21:45.341Z,356
2017-04-03T05:22:25.869Z,368
2017-04-03T05:23:06.386Z,380
2017-04-03T05:23:46.888Z,396
2017-04-03T05:24:27.397Z,408
2017-04-03T05:25:07.914Z,424
2017-04-03T05:25:48.417Z,436
2017-04-03T05:26:28.944Z,452
2017-04-03T05:27:09.482Z,464
2017-04-03T05:27:50.009Z,480
2017-04-03T05:28:30.579Z,496
2017-04-03T05:29:11.103Z,512
2017-04-03T05:29:51.627Z,524
2017-04-03T05:30:32.163Z,536
2017-04-03T05:31:12.698Z,552
2017-04-03T05:31:53.219Z,568
2017-04-03T05:32:33.753Z,584
2017-04-03T05:33:14.284Z,596
2017-04-03T05:33:54.833Z,616
2017-04-03T05:34:35.366Z,628
2017-04-03T05:35:15.917Z,648
2017-04-03T05:35:56.455Z,668
2017-04-03T05:36:36.990Z,684
2017-04-03T05:37:17.522Z,704
2017-04-03T05:37:58.054Z,724
2017-04-03T05:38:38.586Z,744
2017-04-03T05:39:19.130Z,760
2017-04-03T05:39:59.656Z,780
2017-04-03T05:40:40.193Z,800
2017-04-03T05:41:20.727Z,816
2017-04-03T05:42:01.253Z,836
2017-04-03T05:42:41.776Z,852
2017-04-03T05:43:22.305Z,868
2017-04-03T05:44:02.835Z,884
2017-04-03T05:44:43.362Z,896
2017-04-03T05:45:23.893Z,916
2017-04-03T05:46:04.433Z,932
2017-04-03T05:46:45.188Z,956
2017-04-03T05:47:25.910Z,976
2017-04-03T05:48:06.431Z,996
2017-04-03T05:48:46.965Z,1012
2017-04-03T05:49:27.494Z,1036
2017-04-03T05:50:08.009Z,1056
2017-04-03T05:50:48.519Z,1076
2017-04-03T05:51:29.053Z,1104
2017-04-03T05:52:09.591Z,1124
2017-04-03T05:52:50.127Z,1148
2017-04-03T05:53:30.653Z,1172
2017-04-03T05:54:11.174Z,1196
2017-04-03T05:54:51.700Z,1220
2017-04-03T05:55:32.240Z,1236
2017-04-03T05:56:12.758Z,1256
2017-04-03T05:56:53.294Z,1272
2017-04-03T05:57:33.826Z,1292
2017-04-03T05:58:14.437Z,1312
2017-04-03T05:58:54.936Z,1332
2017-04-03T05:59:35.454Z,1352
2017-04-03T06:00:15.989Z,1376
2017-04-03T06:00:56.525Z,1396
2017-04-03T06:01:37.053Z,1416
2017-04-03T06:02:17.576Z,1436
2017-04-03T06:02:58.126Z,1452
2017-04-03T06:03:38.660Z,1476
2017-04-03T06:04:19.206Z,1496
2017-04-03T06:04:59.747Z,1520
2017-04-03T06:05:40.249Z,1544
2017-04-03T06:06:20.800Z,1572
2017-04-03T06:07:01.327Z,1600
2017-04-03T06:07:41.870Z,1632
2017-04-03T06:08:22.408Z,1660
2017-04-03T06:09:02.941Z,1684
2017-04-03T06:09:43.442Z,1712
2017-04-03T06:10:23.970Z,1724
2017-04-03T06:11:04.483Z,1736
2017-04-03T06:11:44.995Z,1760
2017-04-03T06:12:25.509Z,1792
2017-04-03T06:13:06.035Z,1828
2017-04-03T06:13:46.551Z,1860
2017-04-03T06:14:27.073Z,1888
2017-04-03T06:15:07.614Z,1916
2017-04-03T06:15:48.138Z,1948
2017-04-03T06:16:28.645Z,1988
2017-04-03T06:17:09.172Z,2020
2017-04-03T06:17:49.716Z,2048
2017-04-03T06:18:30.248Z,2072
2017-04-03T06:19:10.778Z,2116
2017-04-03T06:19:51.305Z,2172
2017-04-03T06:20:31.827Z,2216
2017-04-03T06:21:12.362Z,2232
2017-04-03T06:21:52.899Z,2240
2017-04-03T06:22:33.434Z,2248
2017-04-03T06:23:13.965Z,2268
2017-04-03T06:23:54.510Z,2300
2017-04-03T06:24:35.037Z,2336
2017-04-03T06:25:15.569Z,2380
2017-04-03T06:25:56.122Z,2424
2017-04-03T06:26:36.650Z,2472
2017-04-03T06:27:17.164Z,2524
2017-04-03T06:27:57.687Z,2548
2017-04-03T06:28:38.199Z,2540
2017-04-03T06:29:18.730Z,2552
2017-04-03T06:29:59.297Z,2600
2017-04-03T06:30:39.817Z,2660
2017-04-03T06:31:20.342Z,2704
2017-04-03T06:32:00.858Z,2736
2017-04-03T06:32:41.433Z,2772
2017-04-03T06:33:21.965Z,2832
2017-04-03T06:34:02.500Z,2904
2017-04-03T06:34:42.996Z,2948
2017-04-03T06:35:23.520Z,2936
2017-04-03T06:36:04.059Z,2920
2017-04-03T06:36:44.569Z,2908
2017-04-03T06:37:25.094Z,2960
2017-04-03T06:38:05.630Z,3044
2017-04-03T06:38:46.174Z,3096
2017-04-03T06:39:26.712Z,3132
2017-04-03T06:40:07.246Z,3244
2017-04-03T06:40:47.798Z,3324
2017-04-03T06:41:28.333Z,3344
2017-04-03T06:42:08.835Z,3356
2017-04-03T06:42:49.360Z,3400
2017-04-03T06:43:29.902Z,3512
2017-04-03T06:44:10.489Z,3712
2017-04-03T06:44:51.030Z,3844
2017-04-03T06:45:31.565Z,3884
2017-04-03T06:46:12.107Z,3852
2017-04-03T06:46:52.631Z,3888
2017-04-03T06:47:33.164Z,3896
2017-04-03T06:48:13.704Z,3948
2017-04-03T06:48:54.238Z,4052
2017-04-03T06:49:34.781Z,4128
2017-04-03T06:50:15.317Z,4064
2017-04-03T06:50:55.849Z,3972
2017-04-03T06:51:36.388Z,3864
2017-04-03T06:52:16.914Z,3836
2017-04-03T06:52:57.450Z,3868
2017-04-03T06:53:37.986Z,3868
2017-04-03T06:54:18.524Z,3768
2017-04-03T06:54:59.062Z,3724
2017-04-03T06:55:39.572Z,3692
2017-04-03T06:56:20.115Z,3812
2017-04-03T06:57:00.673Z,4112
2017-04-03T06:57:41.159Z,4264
2017-04-03T06:58:21.740Z,4256
2017-04-03T06:59:02.249Z,4300
2017-04-03T06:59:42.765Z,4420
2017-04-03T07:00:23.297Z,4364
2017-04-03T07:01:03.824Z,4244
2017-04-03T07:01:44.357Z,4248
2017-04-03T07:02:24.863Z,4292
2017-04-03T07:03:05.410Z,4420
2017-04-03T07:03:45.920Z,4516
2017-04-03T07:04:26.460Z,4624
2017-04-03T07:05:07.007Z,4596
2017-04-03T07:05:47.515Z,4680
2017-04-03T07:06:28.044Z,4640
2017-04-03T07:07:08.582Z,4432
2017-04-03T07:07:49.113Z,4388
2017-04-03T07:08:29.641Z,4564
2017-04-03T07:09:10.166Z,4640
2017-04-03T07:09:50.692Z,4720
2017-04-03T07:10:31.233Z,4756
2017-04-03T07:11:11.748Z,4860
2017-04-03T07:11:52.286Z,4540
2017-04-03T07:12:32.805Z,4244
2017-04-03T07:13:13.336Z,4112
2017-04-03T07:13:53.863Z,4072
2017-04-03T07:14:34.412Z,4232
2017-04-03T07:15:14.940Z,4164
2017-04-03T07:15:55.474Z,4272
2017-04-03T07:16:35.996Z,4308
2017-04-03T07:17:16.541Z,4312
2017-04-03T07:17:57.067Z,4596
2017-04-03T07:18:37.606Z,4828
2017-04-03T07:19:18.122Z,4916
2017-04-03T07:19:58.658Z,4848
2017-04-03T07:20:39.187Z,4684
2017-04-03T07:21:19.696Z,4608
2017-04-03T07:22:00.215Z,4812
2017-04-03T07:22:40.746Z,5096
2017-04-03T07:23:21.276Z,5104
2017-04-03T07:24:01.822Z,5120
2017-04-03T07:24:42.363Z,5036
2017-04-03T07:25:22.884Z,5004
2017-04-03T07:26:03.425Z,4984
2017-04-03T07:26:43.948Z,4888
2017-04-03T07:27:24.493Z,5036
2017-04-03T07:28:05.032Z,5216
2017-04-03T07:28:45.554Z,5180
2017-04-03T07:29:26.072Z,5024
2017-04-03T07:30:06.606Z,4764
2017-04-03T07:30:47.144Z,4456
2017-04-03T07:31:27.680Z,4396
2017-04-03T07:32:08.220Z,4372
2017-04-03T07:32:48.753Z,4468
2017-04-03T07:33:29.290Z,4480
2017-04-03T07:34:09.822Z,4320
2017-04-03T07:34:50.363Z,4200
2017-04-03T07:35:30.903Z,4024
2017-04-03T07:36:11.436Z,3908
2017-04-03T07:36:51.957Z,3944
2017-04-03T07:37:32.484Z,3896
2017-04-03T07:38:13.017Z,3736
2017-04-03T07:38:53.561Z,3604
2017-04-03T07:39:34.091Z,3460
2017-04-03T07:40:14.661Z,3292
2017-04-03T07:40:55.160Z,3252
2017-04-03T07:41:35.688Z,3324
2017-04-03T07:42:16.220Z,3440
2017-04-03T07:42:56.753Z,3624
2017-04-03T07:43:37.294Z,3936
2017-04-03T07:44:17.811Z,4208
2017-04-03T07:44:58.335Z,4204
2017-04-03T07:45:38.870Z,4008
2017-04-03T07:46:19.408Z,3660
2017-04-03T07:46:59.952Z,3320
2017-04-03T07:47:40.478Z,3164
2017-04-03T07:48:21.023Z,3248
2017-04-03T07:49:01.632Z,3424
2017-04-03T07:49:42.095Z,3556
2017-04-03T07:50:22.635Z,3488
2017-04-03T07:51:03.178Z,3344
2017-04-03T07:51:43.715Z,3364
2017-04-03T07:52:24.248Z,3480
2017-04-03T07:53:04.788Z,3540
2017-04-03T07:53:45.306Z,3616
2017-04-03T07:54:25.836Z,3512
2017-04-03T07:55:06.372Z,3292
2017-04-03T07:55:46.903Z,3120
2017-04-03T07:56:27.423Z,3108
2017-04-03T07:57:07.951Z,3232
2017-04-03T07:57:48.488Z,3328
2017-04-03T07:58:29.025Z,3368
2017-04-03T07:59:09.563Z,3188
2017-04-03T07:59:50.097Z,2960
2017-04-03T08:00:30.639Z,2868
2017-04-03T08:01:11.173Z,2840
2017-04-03T08:01:51.705Z,2820
2017-04-03T08:02:32.240Z,2876
2017-04-03T08:03:12.778Z,2980
2017-04-03T08:03:53.316Z,3008
2017-04-03T08:04:33.852Z,2844
2017-04-03T08:05:14.379Z,2768
2017-04-03T08:05:54.905Z,2728
2017-04-03T08:06:35.454Z,2800
2017-04-03T08:07:15.949Z,2884
2017-04-03T08:07:56.486Z,2944
2017-04-03T08:08:37.006Z,3004
2017-04-03T08:09:17.544Z,3048
2017-04-03T08:09:58.067Z,3104
2017-04-03T08:10:38.589Z,3068
2017-04-03T08:11:19.123Z,3056
2017-04-03T08:11:59.651Z,3052
2017-04-03T08:12:40.181Z,3032
2017-04-03T08:13:20.719Z,3012
2017-04-03T08:14:01.251Z,2940
2017-04-03T08:14:41.781Z,2896
2017-04-03T08:15:22.312Z,2908
2017-04-03T08:16:02.888Z,2884
2017-04-03T08:16:43.390Z,2892
2017-04-03T08:17:23.930Z,2828
2017-04-03T08:18:04.457Z,2708
2017-04-03T08:18:44.996Z,2580
2017-04-03T08:19:25.524Z,2516
2017-04-03T08:20:06.061Z,2520
2017-04-03T08:20:46.597Z,2528
2017-04-03T08:21:27.141Z,2528
2017-04-03T08:22:07.665Z,2432
2017-04-03T08:22:48.206Z,2368
2017-04-03T08:23:28.738Z,2388
2017-04-03T08:24:09.270Z,2476
2017-04-03T08:24:49.801Z,2604
2017-04-03T08:25:30.345Z,2680
2017-04-03T08:26:10.879Z,2692
2017-04-03T08:26:51.416Z,2752
2017-04-03T08:27:31.930Z,2728
2017-04-03T08:28:12.452Z,2692
2017-04-03T08:28:52.971Z,2692
2017-04-03T08:29:33.489Z,2788
2017-04-03T08:30:14.019Z,2804
2017-04-03T08:30:54.540Z,2796
2017-04-03T08:31:35.061Z,2812
2017-04-03T08:32:15.567Z,2812
2017-04-03T08:32:56.103Z,2796
2017-04-03T08:33:36.648Z,2812
2017-04-03T08:34:17.199Z,2756
2017-04-03T08:34:57.719Z,2676
2017-04-03T08:35:38.241Z,2608
2017-04-03T08:36:18.740Z,2584
2017-04-03T08:36:59.306Z,2548
2017-04-03T08:37:39.815Z,2500
2017-04-03T08:38:20.356Z,2460
2017-04-03T08:39:00.873Z,2396
2017-04-03T08:39:41.394Z,2376
2017-04-03T08:40:21.924Z,2372
2017-04-03T08:41:02.468Z,2376
2017-04-03T08:41:42.985Z,2372
2017-04-03T08:42:23.511Z,2352
2017-04-03T08:43:04.025Z,2348
2017-04-03T08:43:44.556Z,2408
2017-04-03T08:44:25.064Z,2440
2017-04-03T08:45:05.592Z,2428
2017-04-03T08:45:46.126Z,2328
2017-04-03T08:46:26.621Z,2324
2017-04-03T08:47:07.260Z,2360
2017-04-03T08:47:47.719Z,2380
2017-04-03T08:48:28.238Z,2404
2017-04-03T08:49:08.762Z,2348
2017-04-03T08:49:49.270Z,2428
2017-04-03T08:50:29.809Z,2444
2017-04-03T08:51:10.349Z,2460
2017-04-03T08:51:50.875Z,2456
2017-04-03T08:52:31.422Z,2424
2017-04-03T08:53:11.953Z,2372
2017-04-03T08:53:52.489Z,2408
2017-04-03T08:54:33.011Z,2416
2017-04-03T08:55:13.529Z,2412
2017-04-03T08:55:54.063Z,2464
2017-04-03T08:56:34.582Z,2472
2017-04-03T08:57:15.108Z,2568
2017-04-03T08:57:55.645Z,2680
2017-04-03T08:58:36.159Z,2736
2017-04-03T08:59:16.695Z,2736
2017-04-03T08:59:57.232Z,2636
2017-04-03T09:00:37.756Z,2600
2017-04-03T09:01:18.286Z,2588
2017-04-03T09:01:58.814Z,2604
2017-04-03T09:02:39.355Z,2640
2017-04-03T09:03:19.895Z,2692
2017-04-03T09:04:00.415Z,2744
2017-04-03T09:04:40.930Z,2784
2017-04-03T09:05:21.468Z,2740
2017-04-03T09:06:02.011Z,2732
2017-04-03T09:06:42.546Z,2712
2017-04-03T09:07:23.079Z,2672
2017-04-03T09:08:03.615Z,2728
2017-04-03T09:08:44.139Z,2768
2017-04-03T09:09:24.664Z,2760
2017-04-03T09:10:05.200Z,2752
2017-04-03T09:10:45.732Z,2764
2017-04-03T09:11:26.266Z,2728
2017-04-03T09:12:06.793Z,2672
2017-04-03T09:12:47.334Z,2640
2017-04-03T09:13:27.852Z,2640
2017-04-03T09:14:08.378Z,2596
2017-04-03T09:14:48.919Z,2520
2017-04-03T09:15:29.445Z,2476
2017-04-03T09:16:09.955Z,2508
2017-04-03T09:16:50.486Z,2556
2017-04-03T09:17:31.021Z,2552
2017-04-03T09:18:11.554Z,2540
2017-04-03T09:18:52.074Z,2640
2017-04-03T09:19:32.595Z,2712
2017-04-03T09:20:13.114Z,2892
2017-04-03T09:20:53.627Z,3100
2017-04-03T09:21:34.146Z,3284
2017-04-03T09:22:14.672Z,3348
2017-04-03T09:22:55.198Z,3376
2017-04-03T09:23:35.732Z,3364
2017-04-03T09:24:16.268Z,3324
2017-04-03T09:24:56.789Z,3272
2017-04-03T09:25:37.299Z,3168
2017-04-03T09:26:17.824Z,3144
2017-04-03T09:26:58.345Z,3124
2017-04-03T09:27:38.862Z,3088
2017-04-03T09:28:19.397Z,3044
2017-04-03T09:28:59.938Z,3024
2017-04-03T09:29:40.469Z,3016
2017-04-03T09:30:21.010Z,2952